createdAt,value
2023-04-15T00:01:34.940Z,5.20
2023-04-15T00:06:39.997Z,5.13
2023-04-15T00:11:44.844Z,5.90
2023-04-15T00:16:50.404Z,5.83
2023-04-15T00:26:59.491Z,5.75
2023-04-15T00:37:06.639Z,6.18
2023-04-15T00:42:12.493Z,6.65
2023-04-15T00:47:17.604Z,5.28
2023-04-15T00:52:21.278Z,4.60
2023-04-15T00:57:27.128Z,4.80
2023-04-15T01:02:30.970Z,5.22
2023-04-15T01:07:34.679Z,4.50
2023-04-15T01:12:40.735Z,5.60
2023-04-15T01:17:44.221Z,5.15
2023-04-15T01:22:48.242Z,4.95
2023-04-15T01:27:53.419Z,5.88
2023-04-15T01:32:57.220Z,5.72
2023-04-15T01:38:06.512Z,4.75
2023-04-15T01:43:11.403Z,4.95
2023-04-15T01:48:14.922Z,4.70
2023-04-15T01:53:18.512Z,4.40
2023-04-15T01:58:23.606Z,5.13
2023-04-15T02:03:28.059Z,4.55
2023-04-15T02:08:31.978Z,6.00
2023-04-15T02:13:37.390Z,5.38
2023-04-15T02:18:41.111Z,3.88
2023-04-15T02:23:48.692Z,5.00
2023-04-15T02:28:53.492Z,5.25
2023-04-15T02:33:57.044Z,4.13
2023-04-15T02:39:01.369Z,4.43
2023-04-15T02:44:08.298Z,4.40
2023-04-15T02:49:13.086Z,4.35
2023-04-15T02:54:16.792Z,3.97
2023-04-15T02:59:21.454Z,3.75
2023-04-15T03:04:25.012Z,4.78
2023-04-15T03:09:28.622Z,4.95
2023-04-15T03:14:36.609Z,4.43
2023-04-15T03:19:40.407Z,4.95
2023-04-15T03:24:45.365Z,6.85
2023-04-15T03:29:50.461Z,5.18
2023-04-15T03:34:55.258Z,6.25
2023-04-15T03:39:58.862Z,6.38
2023-04-15T03:45:04.127Z,6.43
2023-04-15T03:50:08.707Z,6.85
2023-04-15T03:55:12.426Z,5.28
2023-04-15T04:00:17.753Z,4.97
2023-04-15T04:05:21.495Z,4.43
2023-04-15T04:10:25.101Z,4.68
2023-04-15T04:15:30.238Z,5.30
2023-04-15T04:20:33.598Z,5.18
2023-04-15T04:25:37.217Z,5.93
2023-04-15T04:30:42.400Z,4.97
2023-04-15T04:35:45.904Z,5.22
2023-04-15T04:40:49.790Z,4.95
2023-04-15T04:45:54.767Z,4.45
2023-04-15T04:50:58.502Z,5.82
2023-04-15T04:56:02.179Z,5.40
2023-04-15T05:01:07.514Z,5.22
2023-04-15T05:06:11.387Z,5.10
2023-04-15T05:11:15.137Z,5.50
2023-04-15T05:16:20.408Z,5.78
2023-04-15T05:21:24.286Z,5.47
2023-04-15T05:26:27.846Z,5.72
2023-04-15T05:31:32.969Z,5.78
2023-04-15T05:36:36.760Z,6.28
2023-04-15T05:41:40.478Z,6.85
2023-04-15T05:46:45.639Z,7.25
2023-04-15T05:51:49.508Z,7.38
2023-04-15T05:56:53.081Z,7.47
2023-04-15T06:01:58.328Z,6.07
2023-04-15T06:07:02.071Z,6.53
2023-04-15T06:12:07.292Z,5.18
2023-04-15T06:17:14.907Z,7.05
2023-04-15T06:22:18.605Z,7.38
2023-04-15T06:27:23.421Z,6.13
2023-04-15T06:32:28.607Z,7.03
2023-04-15T06:37:33.095Z,6.03
2023-04-15T06:42:37.302Z,6.82
2023-04-15T06:47:42.263Z,6.10
2023-04-15T06:52:45.954Z,6.35
2023-04-15T06:57:49.525Z,5.88
2023-04-15T07:02:55.666Z,5.80
2023-04-15T07:07:59.371Z,5.53
2023-04-15T07:13:03.379Z,5.88
2023-04-15T07:18:08.399Z,5.35
2023-04-15T07:23:12.299Z,5.63
2023-04-15T07:28:16.093Z,5.68
2023-04-15T07:33:21.240Z,5.70
2023-04-15T07:38:25.206Z,6.93
2023-04-15T07:43:29.256Z,6.60
2023-04-15T07:48:35.576Z,7.22
2023-04-15T07:53:40.913Z,7.43
2023-04-15T07:58:44.949Z,5.78
2023-04-15T08:03:50.192Z,6.00
2023-04-15T08:08:54.669Z,6.75
2023-04-15T08:13:58.562Z,5.75
2023-04-15T08:19:04.252Z,6.25
2023-04-15T08:24:08.707Z,6.40
2023-04-15T08:29:12.641Z,6.97
2023-04-15T08:34:18.530Z,7.07
2023-04-15T08:39:22.125Z,7.60
2023-04-15T08:44:26.540Z,7.80
2023-04-15T08:49:31.945Z,8.70
2023-04-15T08:54:36.683Z,8.63
2023-04-15T08:59:41.494Z,9.00
2023-04-15T09:04:46.097Z,9.47
2023-04-15T09:09:51.152Z,10.07
2023-04-15T09:14:54.488Z,10.80
2023-04-15T09:20:13.032Z,10.25
2023-04-15T09:25:31.106Z,10.73
2023-04-15T09:30:35.831Z,10.90
2023-04-15T09:35:40.741Z,11.40
2023-04-15T09:40:44.062Z,11.70
2023-04-15T09:45:51.956Z,11.65
2023-04-15T09:51:00.514Z,10.52
2023-04-15T09:56:04.384Z,11.48
2023-04-15T10:01:09.186Z,12.63
2023-04-15T10:06:15.056Z,10.60
2023-04-15T10:11:19.856Z,13.57
2023-04-15T10:16:27.893Z,14.30
2023-04-15T10:21:33.580Z,15.77
2023-04-15T10:26:37.297Z,15.40
2023-04-15T10:31:42.413Z,15.77
2023-04-15T10:36:47.610Z,15.60
2023-04-15T10:42:08.224Z,16.35
2023-04-15T10:47:13.620Z,15.80
2023-04-15T10:52:23.411Z,15.48
2023-04-15T10:57:26.640Z,14.50
2023-04-15T11:02:41.514Z,15.98
2023-04-15T11:07:55.779Z,15.85
2023-04-15T11:13:00.554Z,16.10
2023-04-15T11:18:11.786Z,16.30
2023-04-15T11:23:17.211Z,15.85
2023-04-15T11:28:20.440Z,14.82
2023-04-15T11:33:24.994Z,14.55
2023-04-15T11:38:29.681Z,13.82
2023-04-15T11:43:35.589Z,13.37
2023-04-15T11:48:43.324Z,12.02
2023-04-15T11:53:49.263Z,10.75
2023-04-15T11:58:54.206Z,10.40
2023-04-15T12:03:59.922Z,10.20
2023-04-15T12:09:12.219Z,11.52
2023-04-15T12:14:23.852Z,10.48
2023-04-15T12:19:29.782Z,10.60
2023-04-15T12:24:35.220Z,9.75
2023-04-15T12:29:40.000Z,9.80
2023-04-15T12:34:46.234Z,8.43
2023-04-15T12:39:52.203Z,8.18
2023-04-15T12:44:55.477Z,9.13
2023-04-15T12:49:59.134Z,7.82
2023-04-15T12:55:03.761Z,6.80
2023-04-15T13:00:09.438Z,6.13
2023-04-15T13:05:14.720Z,5.95
2023-04-15T13:10:19.409Z,6.53
2023-04-15T13:15:22.710Z,5.50
2023-04-15T13:20:26.912Z,5.20
2023-04-15T13:25:31.554Z,4.03
2023-04-15T13:30:35.093Z,5.10
2023-04-15T13:35:38.518Z,5.43
2023-04-15T13:40:43.588Z,4.90
2023-04-15T13:45:48.596Z,5.15
2023-04-15T13:50:52.321Z,5.30
2023-04-15T13:55:57.084Z,4.38
2023-04-15T14:01:00.865Z,4.47
2023-04-15T14:06:06.385Z,5.20
2023-04-15T14:11:11.484Z,5.13
2023-04-15T14:16:14.718Z,4.90
2023-04-15T14:21:17.966Z,5.30
2023-04-15T14:26:22.582Z,5.60
2023-04-15T14:31:25.815Z,6.00
2023-04-15T14:36:29.014Z,5.47
2023-04-15T14:41:33.624Z,5.18
2023-04-15T14:46:36.983Z,6.07
2023-04-15T14:51:41.762Z,5.00
2023-04-15T14:56:46.550Z,5.47
2023-04-15T15:01:50.353Z,5.20
2023-04-15T15:06:54.052Z,6.18
2023-04-15T15:11:59.006Z,5.63
2023-04-15T15:17:03.363Z,5.90
2023-04-15T15:22:07.005Z,6.03
2023-04-15T15:27:11.853Z,6.18
2023-04-15T15:32:15.621Z,5.40
2023-04-15T15:37:19.556Z,6.03
2023-04-15T15:42:24.736Z,5.97
2023-04-15T15:47:28.502Z,6.15
2023-04-15T15:52:32.217Z,6.00
2023-04-15T15:57:37.307Z,7.07
2023-04-15T16:03:05.034Z,6.53
2023-04-15T16:08:04.476Z,5.82
2023-04-15T16:13:10.348Z,7.03
2023-04-15T16:18:13.529Z,6.95
2023-04-15T16:23:18.046Z,6.63
2023-04-15T16:28:26.767Z,7.10
2023-04-15T16:33:30.677Z,7.25
2023-04-15T16:38:33.941Z,7.60
2023-04-15T16:43:38.524Z,7.57
2023-04-15T16:48:41.803Z,7.70
2023-04-15T16:53:45.004Z,7.60
2023-04-15T16:58:49.552Z,7.55
2023-04-15T17:03:55.896Z,7.50
2023-04-15T17:08:59.435Z,7.85
2023-04-15T17:14:05.893Z,8.10
2023-04-15T17:19:09.384Z,8.18
2023-04-15T17:24:13.124Z,7.50
2023-04-15T17:29:18.212Z,7.85
2023-04-15T17:34:22.018Z,8.00
2023-04-15T17:39:25.658Z,7.75
2023-04-15T17:44:31.046Z,7.63
2023-04-15T17:49:34.379Z,7.00
2023-04-15T17:54:37.992Z,7.60
2023-04-15T17:59:44.130Z,7.70
2023-04-15T18:04:47.913Z,8.35
2023-04-15T18:09:51.627Z,7.68
2023-04-15T18:14:56.719Z,7.40
2023-04-15T18:20:00.010Z,7.30
2023-04-15T18:25:04.413Z,7.70
2023-04-15T18:30:11.412Z,7.55
2023-04-15T18:35:17.044Z,7.40
2023-04-15T18:40:20.758Z,7.72
2023-04-15T18:45:25.863Z,8.38
2023-04-15T18:50:29.323Z,8.47
2023-04-15T18:55:33.473Z,8.25
2023-04-15T19:00:42.163Z,8.80
2023-04-15T19:05:46.047Z,8.85
2023-04-15T19:10:49.775Z,8.13
2023-04-15T19:15:54.821Z,8.07
2023-04-15T19:20:59.001Z,10.18
2023-04-15T19:26:02.761Z,10.00
2023-04-15T19:31:07.510Z,9.30
2023-04-15T19:36:11.909Z,9.70
2023-04-15T19:41:15.669Z,10.00
2023-04-15T19:46:20.983Z,9.70
2023-04-15T19:51:24.870Z,9.25
2023-04-15T19:56:28.432Z,9.55
2023-04-15T20:01:33.741Z,9.55
2023-04-15T20:06:37.098Z,11.75
2023-04-15T20:12:48.132Z,10.05
2023-04-15T20:17:05.419Z,10.15
2023-04-15T20:22:09.778Z,9.38
2023-04-15T20:27:13.087Z,10.55
2023-04-15T20:32:18.805Z,10.00
2023-04-15T20:37:22.443Z,13.85
2023-04-15T20:42:26.229Z,14.60
2023-04-15T20:47:31.496Z,13.73
2023-04-15T20:52:34.846Z,10.07
2023-04-15T20:57:38.475Z,10.07
2023-04-15T21:02:43.690Z,11.05
2023-04-15T21:07:47.448Z,9.80
2023-04-15T21:12:51.302Z,10.77
2023-04-15T21:17:56.021Z,9.52
2023-04-15T21:22:59.235Z,10.37
2023-04-15T21:28:03.682Z,11.52
2023-04-15T21:33:08.283Z,11.45
2023-04-15T21:38:11.531Z,11.60
2023-04-15T21:43:14.782Z,11.60
2023-04-15T21:48:19.452Z,11.40
2023-04-15T21:53:22.676Z,13.07
2023-04-15T21:58:25.896Z,12.20
2023-04-15T22:03:33.485Z,11.05
2023-04-15T22:08:48.319Z,11.70
2023-04-15T22:13:56.949Z,12.57
2023-04-15T22:19:03.056Z,11.50
2023-04-15T22:24:34.083Z,11.30
2023-04-15T22:29:31.012Z,12.02
2023-04-15T22:34:36.024Z,12.98
2023-04-15T22:39:39.231Z,12.65
2023-04-15T22:44:42.375Z,12.40
2023-04-15T22:49:47.091Z,13.02
2023-04-15T22:54:50.301Z,12.07
2023-04-15T22:59:53.487Z,11.90
2023-04-15T23:04:58.779Z,12.40
2023-04-15T23:10:02.588Z,11.88
2023-04-15T23:15:06.941Z,11.65
2023-04-15T23:20:13.704Z,10.45
2023-04-15T23:25:17.416Z,11.57
2023-04-15T23:30:21.377Z,11.27
2023-04-15T23:35:27.623Z,10.23
2023-04-15T23:40:31.357Z,11.18
2023-04-15T23:45:34.971Z,10.82
2023-04-15T23:50:39.987Z,11.73
2023-04-15T23:55:43.560Z,11.95
